createdAt,value
2022-08-11T00:00:00.030Z,4.93
2022-08-11T00:02:37.670Z,4.53
2022-08-11T00:05:11.138Z,10.15
2022-08-11T00:07:54.755Z,6.45
2022-08-11T00:10:24.217Z,6.85
2022-08-11T00:13:03.104Z,5.93
2022-08-11T00:15:41.163Z,6.43
2022-08-11T00:18:08.980Z,8.63
2022-08-11T00:20:38.539Z,7.28
2022-08-11T00:23:19.804Z,4.82
2022-08-11T00:28:34.291Z,7.43
2022-08-11T00:31:07.015Z,8.40
2022-08-11T00:33:44.097Z,7.13
2022-08-11T00:36:19.825Z,4.70
2022-08-11T00:38:52.799Z,6.00
2022-08-11T00:41:34.135Z,5.60
2022-08-11T00:44:15.955Z,6.00
2022-08-11T00:46:57.498Z,8.25
2022-08-11T00:49:30.530Z,6.97
2022-08-11T00:52:38.765Z,5.70
2022-08-11T00:55:42.118Z,4.72
2022-08-11T00:58:26.449Z,6.45
2022-08-11T01:01:24.143Z,6.50
2022-08-11T01:04:09.916Z,6.68
2022-08-11T01:06:54.958Z,6.90
2022-08-11T01:09:44.661Z,6.47
2022-08-11T01:12:29.933Z,5.25
2022-08-11T01:15:15.363Z,10.90
2022-08-11T01:18:12.518Z,5.13
2022-08-11T01:21:18.216Z,5.07
2022-08-11T01:24:18.545Z,5.50
2022-08-11T01:26:57.158Z,5.75
2022-08-11T01:29:52.411Z,6.93
2022-08-11T01:32:56.802Z,5.78
2022-08-11T01:35:53.125Z,7.28
2022-08-11T01:38:44.393Z,8.35
2022-08-11T01:41:23.183Z,8.18
2022-08-11T01:44:36.190Z,8.27
2022-08-11T01:47:09.655Z,6.93
2022-08-11T01:50:08.173Z,8.02
2022-08-11T01:52:53.567Z,9.65
2022-08-11T01:55:46.546Z,7.65
2022-08-11T01:58:40.828Z,7.10
2022-08-11T02:01:23.989Z,6.07
2022-08-11T02:03:55.112Z,8.18
2022-08-11T02:06:35.212Z,9.35
2022-08-11T02:09:10.085Z,6.78
2022-08-11T02:11:38.076Z,8.45
2022-08-11T02:14:29.345Z,8.98
2022-08-11T02:17:01.821Z,8.38
2022-08-11T02:20:03.417Z,7.60
2022-08-11T02:25:18.249Z,8.77
2022-08-11T02:27:52.841Z,11.35
2022-08-11T02:30:25.377Z,11.57
2022-08-11T02:33:20.241Z,10.02
2022-08-11T02:35:51.695Z,10.35
2022-08-11T02:38:25.498Z,9.00
2022-08-11T02:41:21.600Z,11.63
2022-08-11T02:43:58.046Z,11.30
2022-08-11T02:46:32.660Z,13.65
2022-08-11T02:49:18.121Z,9.85
2022-08-11T02:51:55.660Z,14.18
2022-08-11T02:54:34.275Z,10.95
2022-08-11T02:57:18.365Z,10.90
2022-08-11T03:00:04.883Z,12.30
2022-08-11T03:02:54.882Z,12.88
2022-08-11T03:05:32.379Z,11.73
2022-08-11T03:08:04.997Z,13.10
2022-08-11T03:10:52.990Z,13.70
2022-08-11T03:13:28.450Z,11.52
2022-08-11T03:16:16.483Z,9.82
2022-08-11T03:18:50.801Z,10.50
2022-08-11T03:21:24.398Z,9.73
2022-08-11T03:24:24.757Z,10.38
2022-08-11T03:27:04.957Z,10.98
2022-08-11T03:29:42.565Z,9.80
2022-08-11T03:32:28.192Z,13.57
2022-08-11T03:34:56.787Z,12.25
2022-08-11T03:37:48.608Z,10.52
2022-08-11T03:40:18.152Z,13.23
2022-08-11T03:43:01.282Z,12.90
2022-08-11T03:46:10.195Z,11.70
2022-08-11T03:49:06.154Z,11.05
2022-08-11T03:51:51.808Z,18.98
2022-08-11T03:54:56.776Z,16.73
2022-08-11T03:57:44.548Z,15.30
2022-08-11T04:00:19.852Z,18.67
2022-08-11T04:03:12.405Z,15.95
2022-08-11T04:05:47.748Z,20.92
2022-08-11T04:08:51.461Z,22.92
2022-08-11T04:11:43.690Z,26.80
2022-08-11T04:14:31.324Z,20.17
2022-08-11T04:17:06.795Z,23.10
2022-08-11T04:19:51.359Z,27.75
2022-08-11T04:22:36.656Z,21.00
2022-08-11T04:25:27.789Z,23.08
2022-08-11T04:28:06.379Z,20.27
2022-08-11T04:30:56.119Z,29.67
2022-08-11T04:34:06.032Z,51.80
2022-08-11T04:36:35.467Z,45.47
2022-08-11T04:40:00.277Z,43.25
2022-08-11T04:42:48.374Z,17.50
2022-08-11T04:45:40.442Z,24.70
2022-08-11T04:48:19.560Z,25.27
2022-08-11T04:51:17.068Z,25.88
2022-08-11T04:54:29.085Z,23.25
2022-08-11T04:57:05.205Z,22.85
2022-08-11T04:59:43.814Z,22.38
2022-08-11T05:02:31.189Z,25.77
2022-08-11T05:05:27.155Z,26.73
2022-08-11T05:07:59.728Z,21.25
2022-08-11T05:10:43.514Z,26.92
2022-08-11T05:13:12.178Z,36.58
2022-08-11T05:15:51.502Z,20.00
2022-08-11T05:18:23.859Z,21.15
2022-08-11T05:20:53.777Z,20.88
2022-08-11T05:23:25.342Z,20.05
2022-08-11T05:26:43.689Z,18.83
2022-08-11T05:29:20.201Z,15.88
2022-08-11T05:31:56.758Z,16.92
2022-08-11T05:34:31.993Z,15.27
2022-08-11T05:37:25.772Z,16.65
2022-08-11T05:40:00.979Z,16.73
2022-08-11T05:42:30.243Z,17.77
2022-08-11T05:45:15.772Z,18.80
2022-08-11T05:47:42.931Z,19.45
2022-08-11T05:50:15.494Z,19.63
2022-08-11T05:52:47.128Z,17.98
2022-08-11T05:55:16.430Z,22.80
2022-08-11T05:57:51.019Z,25.20
2022-08-11T06:00:19.275Z,18.33
2022-08-11T06:02:53.062Z,22.55
2022-08-11T06:05:32.024Z,24.73
2022-08-11T06:08:09.498Z,25.60
2022-08-11T06:10:40.257Z,20.45
2022-08-11T06:13:08.606Z,17.15
2022-08-11T06:15:46.254Z,21.75
2022-08-11T06:18:14.071Z,20.60
2022-08-11T06:20:55.817Z,18.02
2022-08-11T06:23:25.310Z,18.98
2022-08-11T06:25:56.470Z,20.77
2022-08-11T06:28:37.078Z,22.25
2022-08-11T06:31:13.075Z,15.77
2022-08-11T06:33:54.711Z,20.05
2022-08-11T06:36:40.100Z,20.33
2022-08-11T06:39:21.974Z,20.25
2022-08-11T06:42:00.374Z,15.32
2022-08-11T06:45:07.946Z,13.55
2022-08-11T06:47:35.427Z,18.88
2022-08-11T06:50:02.689Z,13.35
2022-08-11T06:52:36.468Z,16.25
2022-08-11T06:55:58.137Z,15.05
2022-08-11T06:58:18.210Z,12.60
2022-08-11T07:00:48.085Z,13.52
2022-08-11T07:03:18.684Z,16.73
2022-08-11T07:06:04.459Z,11.95
2022-08-11T07:09:15.281Z,15.50
2022-08-11T07:12:00.083Z,12.93
2022-08-11T07:14:32.775Z,15.35
2022-08-11T07:17:02.664Z,13.48
2022-08-11T07:19:31.016Z,12.63
2022-08-11T07:22:04.007Z,13.50
2022-08-11T07:24:59.609Z,12.27
2022-08-11T07:27:37.690Z,14.88
2022-08-11T07:30:08.503Z,12.95
2022-08-11T07:32:47.624Z,15.45
2022-08-11T07:35:20.336Z,19.13
2022-08-11T07:38:04.098Z,16.05
2022-08-11T07:40:34.804Z,16.70
2022-08-11T07:43:03.279Z,19.98
2022-08-11T07:45:30.616Z,19.63
2022-08-11T07:47:57.931Z,15.40
2022-08-11T07:50:25.389Z,14.25
2022-08-11T07:52:54.002Z,13.30
2022-08-11T07:55:50.213Z,10.63
2022-08-11T07:58:19.232Z,12.32
2022-08-11T08:00:59.163Z,15.68
2022-08-11T08:03:30.467Z,16.83
2022-08-11T08:05:58.047Z,19.75
2022-08-11T08:08:26.357Z,13.73
2022-08-11T08:10:55.691Z,12.25
2022-08-11T08:13:22.306Z,15.10
2022-08-11T08:15:49.532Z,11.32
2022-08-11T08:18:26.768Z,15.23
2022-08-11T08:20:56.728Z,15.25
2022-08-11T08:23:26.739Z,13.80
2022-08-11T08:25:53.527Z,12.70
2022-08-11T08:28:21.155Z,14.52
2022-08-11T08:30:50.414Z,11.85
2022-08-11T08:33:21.344Z,12.95
2022-08-11T08:35:54.007Z,10.60
2022-08-11T08:38:21.220Z,13.38
2022-08-11T08:40:55.967Z,14.38
2022-08-11T08:43:24.040Z,15.77
2022-08-11T08:45:56.807Z,12.30
2022-08-11T08:48:25.796Z,14.20
2022-08-11T08:51:10.969Z,14.00
2022-08-11T08:53:53.335Z,10.75
2022-08-11T08:56:27.985Z,10.65
2022-08-11T08:58:56.268Z,9.30
2022-08-11T09:01:24.306Z,8.18
2022-08-11T09:04:07.077Z,10.23
2022-08-11T09:06:38.571Z,9.93
2022-08-11T09:09:06.471Z,14.77
2022-08-11T09:11:33.149Z,13.32
2022-08-11T09:14:05.140Z,15.60
2022-08-11T09:16:34.028Z,11.73
2022-08-11T09:19:01.497Z,11.88
2022-08-11T09:21:37.159Z,12.10
2022-08-11T09:24:25.631Z,9.88
2022-08-11T09:26:53.381Z,12.50
2022-08-11T09:29:21.331Z,9.18
2022-08-11T09:31:48.276Z,6.88
2022-08-11T09:34:15.461Z,9.98
2022-08-11T09:36:43.977Z,8.60
2022-08-11T09:39:12.782Z,9.48
2022-08-11T09:42:00.687Z,6.88
2022-08-11T09:44:28.091Z,8.25
2022-08-11T09:46:56.599Z,11.55
2022-08-11T09:49:23.999Z,7.32
2022-08-11T09:52:02.209Z,15.45
2022-08-11T09:54:32.533Z,11.95
2022-08-11T09:57:02.071Z,8.20
2022-08-11T09:59:31.838Z,8.75
2022-08-11T10:02:02.035Z,9.38
2022-08-11T10:04:40.041Z,8.30
2022-08-11T10:07:07.353Z,11.77
2022-08-11T10:09:42.421Z,6.72
2022-08-11T10:12:24.902Z,8.45
2022-08-11T10:15:01.270Z,6.32
2022-08-11T10:17:36.205Z,8.68
2022-08-11T10:20:04.301Z,11.27
2022-08-11T10:22:33.096Z,10.93
2022-08-11T10:25:01.292Z,10.57
2022-08-11T10:28:17.566Z,9.45
2022-08-11T10:30:14.842Z,5.95
2022-08-11T10:32:49.356Z,8.27
2022-08-11T10:35:27.408Z,6.70
2022-08-11T10:38:06.656Z,8.45
2022-08-11T10:40:38.729Z,9.27
2022-08-11T10:43:05.435Z,4.40
2022-08-11T10:45:37.352Z,11.52
2022-08-11T10:48:06.020Z,9.52
2022-08-11T10:50:33.372Z,4.07
2022-08-11T10:53:00.927Z,15.07
2022-08-11T10:55:28.137Z,13.00
2022-08-11T10:58:04.847Z,9.38
2022-08-11T11:00:33.074Z,15.13
2022-08-11T11:03:05.381Z,7.15
2022-08-11T11:06:28.811Z,8.45
2022-08-11T11:08:41.431Z,7.88
2022-08-11T11:11:08.394Z,4.85
2022-08-11T11:13:36.937Z,11.32
2022-08-11T11:16:03.921Z,9.70
2022-08-11T11:18:33.983Z,5.20
2022-08-11T11:23:47.552Z,5.80
2022-08-11T11:26:27.762Z,9.75
2022-08-11T11:29:15.578Z,6.63
2022-08-11T11:32:06.601Z,5.63
2022-08-11T11:34:57.212Z,6.72
2022-08-11T11:37:24.527Z,7.75
2022-08-11T11:39:53.013Z,7.70
2022-08-11T11:42:20.995Z,4.75
2022-08-11T11:44:48.470Z,9.68
2022-08-11T11:47:16.683Z,5.35
2022-08-11T11:49:44.465Z,5.35
2022-08-11T11:52:15.340Z,7.05
2022-08-11T11:54:42.270Z,8.57
2022-08-11T11:57:09.224Z,5.35
2022-08-11T11:59:35.922Z,8.15
2022-08-11T12:02:07.486Z,5.20
2022-08-11T12:04:42.760Z,9.43
2022-08-11T12:07:10.980Z,7.47
2022-08-11T12:09:38.544Z,9.00
2022-08-11T12:12:05.574Z,9.18
2022-08-11T12:14:32.287Z,5.38
2022-08-11T12:16:59.255Z,6.57
2022-08-11T12:19:27.873Z,7.88
2022-08-11T12:22:00.673Z,6.57
2022-08-11T12:24:29.472Z,7.55
2022-08-11T12:27:16.048Z,5.03
2022-08-11T12:29:50.048Z,8.07
2022-08-11T12:32:22.269Z,6.28
2022-08-11T12:34:50.183Z,7.53
2022-08-11T12:37:21.897Z,4.10
2022-08-11T12:40:16.096Z,6.72
2022-08-11T12:42:37.607Z,6.88
2022-08-11T12:45:22.532Z,7.15
2022-08-11T12:48:40.106Z,4.38
2022-08-11T12:50:39.988Z,7.88
2022-08-11T12:53:09.479Z,14.93
2022-08-11T12:55:36.660Z,7.07
2022-08-11T12:58:05.310Z,6.18
2022-08-11T13:00:32.851Z,6.63
2022-08-11T13:03:00.074Z,8.88
2022-08-11T13:05:27.820Z,8.77
2022-08-11T13:07:55.447Z,5.35
2022-08-11T13:12:49.751Z,4.95
2022-08-11T13:15:24.522Z,6.63
2022-08-11T13:17:53.794Z,5.75
2022-08-11T13:20:23.424Z,4.25
2022-08-11T13:22:55.440Z,7.93
2022-08-11T13:25:24.768Z,5.90
2022-08-11T13:30:28.816Z,6.43
2022-08-11T13:35:22.781Z,5.75
2022-08-11T13:38:18.949Z,5.53
2022-08-11T13:40:55.312Z,5.70
2022-08-11T13:43:24.052Z,4.90
2022-08-11T13:45:53.326Z,4.15
2022-08-11T13:48:20.007Z,8.40
2022-08-11T13:50:47.349Z,4.63
2022-08-11T13:53:20.303Z,6.72
2022-08-11T13:55:51.822Z,6.72
2022-08-11T13:58:39.717Z,7.18
2022-08-11T14:02:03.710Z,7.25
2022-08-11T14:04:29.887Z,11.85
2022-08-11T14:06:50.880Z,8.13
2022-08-11T14:09:25.114Z,4.82
2022-08-11T14:12:23.205Z,3.60
2022-08-11T14:14:49.497Z,6.30
2022-08-11T14:17:35.931Z,7.60
2022-08-11T14:20:38.146Z,5.25
2022-08-11T14:22:57.171Z,7.60
2022-08-11T14:25:24.936Z,5.72
2022-08-11T14:28:29.732Z,4.65
2022-08-11T14:31:01.531Z,4.07
2022-08-11T14:33:58.706Z,5.00
2022-08-11T14:36:17.694Z,4.45
2022-08-11T14:38:44.767Z,5.13
2022-08-11T14:41:11.829Z,7.45
2022-08-11T14:44:03.341Z,6.63
2022-08-11T14:46:26.477Z,6.65
2022-08-11T14:48:53.220Z,7.18
2022-08-11T14:51:22.257Z,11.80
2022-08-11T14:53:58.977Z,8.68
2022-08-11T14:56:25.927Z,8.13
2022-08-11T14:58:52.575Z,5.68
2022-08-11T15:01:19.692Z,5.53
2022-08-11T15:04:06.148Z,5.13
2022-08-11T15:06:33.519Z,6.07
2022-08-11T15:09:00.321Z,5.57
2022-08-11T15:11:31.400Z,9.02
2022-08-11T15:14:01.680Z,7.00
2022-08-11T15:16:29.501Z,5.50
2022-08-11T15:18:57.138Z,5.00
2022-08-11T15:21:23.683Z,6.05
2022-08-11T15:23:50.241Z,5.15
2022-08-11T15:26:22.852Z,4.75
2022-08-11T15:28:51.298Z,3.22
2022-08-11T15:31:21.604Z,6.55
2022-08-11T15:33:53.018Z,6.07
2022-08-11T15:36:20.674Z,8.45
2022-08-11T15:39:19.495Z,4.35
2022-08-11T15:42:23.011Z,6.20
2022-08-11T15:45:02.686Z,9.45
2022-08-11T15:47:41.705Z,2.85
2022-08-11T15:50:14.054Z,3.93
2022-08-11T15:52:49.542Z,4.82
2022-08-11T15:55:16.612Z,6.30
2022-08-11T15:57:45.963Z,5.13
2022-08-11T16:02:39.839Z,4.00
2022-08-11T16:05:11.441Z,6.78
2022-08-11T16:07:40.964Z,8.90
2022-08-11T16:10:13.998Z,5.00
2022-08-11T16:12:57.640Z,5.25
2022-08-11T16:15:24.567Z,5.03
2022-08-11T16:18:06.632Z,6.95
2022-08-11T16:20:34.905Z,6.28
2022-08-11T16:23:04.846Z,5.22
2022-08-11T16:27:02.079Z,6.90
2022-08-11T16:28:23.137Z,7.65
2022-08-11T16:30:50.983Z,7.15
2022-08-11T16:33:48.953Z,6.60
2022-08-11T16:38:37.176Z,5.33
2022-08-11T16:41:11.592Z,8.35
2022-08-11T16:43:42.100Z,5.40
2022-08-11T16:46:10.019Z,10.35
2022-08-11T16:48:38.816Z,6.63
2022-08-11T16:51:12.324Z,8.57
2022-08-11T16:54:03.389Z,7.10
2022-08-11T16:56:36.674Z,3.97
2022-08-11T16:59:08.283Z,9.88
2022-08-11T17:01:35.659Z,4.15
2022-08-11T17:04:15.888Z,3.83
2022-08-11T17:06:47.468Z,5.43
2022-08-11T17:09:21.910Z,3.92
2022-08-11T17:11:56.113Z,4.85
2022-08-11T17:14:37.084Z,9.32
2022-08-11T17:17:11.213Z,3.65
2022-08-11T17:20:40.712Z,5.32
2022-08-11T17:22:30.401Z,5.85
2022-08-11T17:24:59.194Z,5.30
2022-08-11T17:27:28.179Z,7.35
2022-08-11T17:29:58.087Z,5.72
2022-08-11T17:32:53.960Z,6.43
2022-08-11T17:35:28.032Z,5.10
2022-08-11T17:37:57.143Z,6.85
2022-08-11T17:40:24.475Z,8.77
2022-08-11T17:42:56.469Z,5.20
2022-08-11T17:45:24.386Z,19.73
2022-08-11T17:47:51.283Z,6.82
2022-08-11T17:50:18.802Z,4.07
2022-08-11T17:52:47.656Z,6.25
2022-08-11T17:55:15.962Z,6.53
2022-08-11T17:58:03.142Z,6.20
2022-08-11T18:00:30.288Z,8.18
2022-08-11T18:02:58.992Z,7.65
2022-08-11T18:05:31.481Z,9.93
2022-08-11T18:08:00.958Z,7.60
2022-08-11T18:10:29.763Z,5.70
2022-08-11T18:12:57.899Z,4.30
2022-08-11T18:15:24.547Z,6.47
2022-08-11T18:17:58.403Z,5.68
2022-08-11T18:20:25.332Z,6.22
2022-08-11T18:22:55.167Z,4.63
2022-08-11T18:25:26.245Z,3.88
2022-08-11T18:27:55.479Z,6.70
2022-08-11T18:30:24.079Z,4.55
2022-08-11T18:33:09.173Z,7.25
2022-08-11T18:35:42.316Z,14.82
2022-08-11T18:38:11.633Z,5.40
2022-08-11T18:40:39.150Z,5.63
2022-08-11T18:43:08.946Z,4.93
2022-08-11T18:45:45.694Z,4.03
2022-08-11T18:48:21.945Z,6.47
2022-08-11T18:51:30.896Z,3.70
2022-08-11T18:53:44.144Z,6.82
2022-08-11T18:56:11.877Z,4.70
2022-08-11T18:58:43.190Z,7.38
2022-08-11T19:01:13.723Z,6.93
2022-08-11T19:06:39.853Z,5.47
2022-08-11T19:09:08.853Z,6.73
2022-08-11T19:11:42.499Z,3.42
2022-08-11T19:14:12.635Z,6.28
2022-08-11T19:16:41.381Z,6.10
2022-08-11T19:19:10.160Z,5.70
2022-08-11T19:21:37.445Z,3.95
2022-08-11T19:24:06.680Z,4.20
2022-08-11T19:26:34.223Z,3.75
2022-08-11T19:29:02.545Z,6.25
2022-08-11T19:31:30.355Z,6.22
2022-08-11T19:34:02.438Z,4.18
2022-08-11T19:36:38.438Z,6.15
2022-08-11T19:39:05.121Z,4.28
2022-08-11T19:41:56.649Z,8.82
2022-08-11T19:44:21.726Z,7.65
2022-08-11T19:46:50.925Z,9.32
2022-08-11T19:49:19.028Z,7.85
2022-08-11T19:51:46.357Z,6.18
2022-08-11T19:54:14.249Z,6.57
2022-08-11T19:56:42.928Z,6.57
2022-08-11T19:59:10.532Z,6.38
2022-08-11T20:01:37.818Z,4.80
2022-08-11T20:04:24.303Z,9.00
2022-08-11T20:06:54.671Z,4.65
2022-08-11T20:09:22.455Z,3.65
2022-08-11T20:11:53.082Z,5.55
2022-08-11T20:14:21.319Z,5.38
2022-08-11T20:16:48.071Z,4.90
2022-08-11T20:19:16.486Z,6.55
2022-08-11T20:21:44.841Z,8.88
2022-08-11T20:24:13.252Z,4.95
2022-08-11T20:26:40.027Z,4.43
2022-08-11T20:29:08.616Z,8.27
2022-08-11T20:31:36.482Z,10.38
2022-08-11T20:34:03.655Z,6.03
2022-08-11T20:36:34.272Z,6.43
2022-08-11T20:39:01.971Z,4.95
2022-08-11T20:41:30.148Z,8.02
2022-08-11T20:44:07.050Z,8.75
2022-08-11T20:46:38.595Z,6.70
2022-08-11T20:49:10.526Z,6.70
2022-08-11T20:51:39.941Z,7.15
2022-08-11T20:54:07.695Z,6.65
2022-08-11T20:56:35.546Z,5.63
2022-08-11T20:59:18.915Z,5.05
2022-08-11T21:01:51.993Z,8.38
2022-08-11T21:04:20.035Z,10.25
2022-08-11T21:06:47.444Z,7.35
2022-08-11T21:09:19.553Z,8.50
2022-08-11T21:11:48.893Z,5.85
2022-08-11T21:14:17.216Z,6.43
2022-08-11T21:16:47.547Z,6.63
2022-08-11T21:19:59.872Z,6.07
2022-08-11T21:22:19.261Z,4.03
2022-08-11T21:24:48.200Z,6.30
2022-08-11T21:27:21.756Z,9.88
2022-08-11T21:29:52.958Z,6.45
2022-08-11T21:32:21.468Z,6.85
2022-08-11T21:34:49.940Z,6.35
2022-08-11T21:37:18.073Z,6.03
2022-08-11T21:39:47.396Z,5.03
2022-08-11T21:42:14.423Z,8.20
2022-08-11T21:44:43.134Z,9.32
2022-08-11T21:47:10.981Z,7.53
2022-08-11T21:49:40.575Z,5.13
2022-08-11T21:52:07.273Z,5.45
2022-08-11T21:54:33.880Z,6.88
2022-08-11T21:57:01.969Z,7.65
2022-08-11T21:59:41.830Z,6.70
2022-08-11T22:02:12.588Z,5.13
2022-08-11T22:04:40.372Z,6.97
2022-08-11T22:07:07.792Z,8.23
2022-08-11T22:09:34.551Z,8.88
2022-08-11T22:12:29.274Z,5.97
2022-08-11T22:14:48.077Z,8.88
2022-08-11T22:17:14.622Z,6.60
2022-08-11T22:19:41.662Z,6.28
2022-08-11T22:22:08.421Z,5.55
2022-08-11T22:24:38.815Z,6.57
2022-08-11T22:27:05.406Z,8.30
2022-08-11T22:29:50.105Z,6.00
2022-08-11T22:32:19.495Z,9.95
2022-08-11T22:34:53.536Z,5.13
2022-08-11T22:37:27.206Z,7.88
2022-08-11T22:40:01.549Z,7.32
2022-08-11T22:42:34.165Z,5.20
2022-08-11T22:45:01.474Z,7.43
2022-08-11T22:47:36.400Z,10.05
2022-08-11T22:50:09.133Z,9.48
2022-08-11T22:52:36.921Z,10.95
2022-08-11T22:55:04.051Z,9.50
2022-08-11T22:57:31.545Z,10.13
2022-08-11T22:59:58.973Z,7.68
2022-08-11T23:02:28.018Z,10.60
2022-08-11T23:04:55.284Z,6.75
2022-08-11T23:07:49.917Z,9.88
2022-08-11T23:10:09.642Z,5.80
2022-08-11T23:12:37.180Z,7.63
2022-08-11T23:15:04.397Z,7.57
2022-08-11T23:17:32.165Z,6.55
2022-08-11T23:20:08.475Z,7.00
2022-08-11T23:22:49.919Z,6.97
2022-08-11T23:25:18.095Z,5.18
2022-08-11T23:27:45.923Z,8.85
2022-08-11T23:30:12.749Z,7.13
2022-08-11T23:32:41.979Z,9.52
2022-08-11T23:35:40.283Z,7.45
2022-08-11T23:37:55.453Z,10.35
2022-08-11T23:40:26.269Z,11.43
2022-08-11T23:42:53.075Z,13.68
2022-08-11T23:45:22.821Z,5.60
2022-08-11T23:47:51.231Z,8.18
2022-08-11T23:50:19.072Z,8.63
2022-08-11T23:52:45.730Z,10.25
2022-08-11T23:55:12.411Z,9.75
2022-08-11T23:57:47.655Z,6.80
